地図

経路データ

SID SEASON NUMBER BASIN SUBBASIN NAME ISO_TIME NATURE LAT LON WMO_WIND WMO_PRES WMO_AGENCY TRACK_TYPE DIST2LAND LANDFALL IFLAG USA_AGENCY USA_ATCF_ID USA_LAT USA_LON USA_RECORD USA_STATUS USA_WIND USA_PRES USA_SSHS USA_R34_NE USA_R34_SE USA_R34_SW USA_R34_NW USA_R50_NE USA_R50_SE USA_R50_SW USA_R50_NW USA_R64_NE USA_R64_SE USA_R64_SW USA_R64_NW USA_POCI USA_ROCI USA_RMW USA_EYE TOKYO_LAT TOKYO_LON TOKYO_GRADE TOKYO_WIND TOKYO_PRES TOKYO_R50_DIR TOKYO_R50_LONG TOKYO_R50_SHORT TOKYO_R30_DIR TOKYO_R30_LONG TOKYO_R30_SHORT TOKYO_LAND CMA_LAT CMA_LON CMA_CAT CMA_WIND CMA_PRES HKO_LAT HKO_LON HKO_CAT HKO_WIND HKO_PRES NEWDELHI_LAT NEWDELHI_LON NEWDELHI_GRADE NEWDELHI_WIND NEWDELHI_PRES NEWDELHI_CI NEWDELHI_DP NEWDELHI_POCI REUNION_LAT REUNION_LON REUNION_TYPE REUNION_WIND REUNION_PRES REUNION_TNUM REUNION_CI REUNION_RMW REUNION_R34_NE REUNION_R34_SE REUNION_R34_SW REUNION_R34_NW REUNION_R50_NE REUNION_R50_SE REUNION_R50_SW REUNION_R50_NW REUNION_R64_NE REUNION_R64_SE REUNION_R64_SW REUNION_R64_NW BOM_LAT BOM_LON BOM_TYPE BOM_WIND BOM_PRES BOM_TNUM BOM_CI BOM_RMW BOM_R34_NE BOM_R34_SE BOM_R34_SW BOM_R34_NW BOM_R50_NE BOM_R50_SE BOM_R50_SW BOM_R50_NW BOM_R64_NE BOM_R64_SE BOM_R64_SW BOM_R64_NW BOM_ROCI BOM_POCI BOM_EYE BOM_POS_METHOD BOM_PRES_METHOD NADI_LAT NADI_LON NADI_CAT NADI_WIND NADI_PRES WELLINGTON_LAT WELLINGTON_LON WELLINGTON_WIND WELLINGTON_PRES DS824_LAT DS824_LON DS824_STAGE DS824_WIND DS824_PRES TD9636_LAT TD9636_LON TD9636_STAGE TD9636_WIND TD9636_PRES TD9635_LAT TD9635_LON TD9635_WIND TD9635_PRES TD9635_ROCI NEUMANN_LAT NEUMANN_LON NEUMANN_CLASS NEUMANN_WIND NEUMANN_PRES MLC_LAT MLC_LON MLC_CLASS MLC_WIND MLC_PRES USA_GUST BOM_GUST BOM_GUST_PER REUNION_GUST REUNION_GUST_PER USA_SEAHGT USA_SEARAD_NE USA_SEARAD_SE USA_SEARAD_SW USA_SEARAD_NW STORM_SPEED STORM_DIR
1974340S12152 1975 138 SP EA NOT_NAMED 1974-12-06 00:00:00 TS -12.0000 152.300 main 234 234 O________OO_O_ jtwc_sh SH041975 -12.0000 152.300 -1 -12.0000 152.300 TC 35 -12.0000 152.300 2 -12.0000 152.300 TC 25 7 127
1974340S12152 1975 138 SP EA NOT_NAMED 1974-12-06 03:00:00 TS -12.2142 152.596 main 273 273 P________PP_P_ SH041975 -12.1900 152.590 -1 -12.1900 152.590 TC 35 -12.2143 152.612 2 -12.2625 152.590 TC 25 7 126
1974340S12152 1975 138 SP EA NOT_NAMED 1974-12-06 06:00:00 TS -12.4332 152.907 main 313 313 O________OP_O_ jtwc_sh SH041975 -12.4000 152.900 -1 -12.4000 152.900 TC 35 -12.4327 152.930 2 -12.5000 152.900 TC 25 8 125
1974340S12152 1975 138 SP EA NOT_NAMED 1974-12-06 09:00:00 TS -12.6612 153.246 main 359 359 P________PP_P_ SH041975 -12.6425 153.243 -1 -12.6425 153.243 TC 35 -12.6598 153.257 2 -12.7000 153.243 TC 27 8 125
1974340S12152 1975 138 SP EA NOT_NAMED 1974-12-06 12:00:00 TS -12.9000 153.600 main 407 407 O________OO_O_ jtwc_sh SH041975 -12.9000 153.600 -1 -12.9000 153.600 TC 35 -12.9000 153.600 2 -12.9000 153.600 TC 30 8 126
1974340S12152 1975 138 SP EA NOT_NAMED 1974-12-06 15:00:00 TS -13.1493 153.947 main 446 446 P________PP_P_ SH041975 -13.1499 153.943 -1 -13.1499 153.943 TC 35 -13.1549 153.961 2 -13.1424 153.943 TC 30 9 126
1974340S12152 1975 138 SP EA NOT_NAMED 1974-12-06 18:00:00 TS -13.4037 154.309 main 501 501 O________OP_O_ jtwc_sh SH041975 -13.4000 154.300 -1 -13.4000 154.300 TC 35 -13.4149 154.335 2 -13.4000 154.300 TC 30 9 125
1974340S12152 1975 138 SP EA NOT_NAMED 1974-12-06 21:00:00 TS -13.6600 154.704 main 556 556 P________PP_P_ SH041975 -13.6575 154.700 -1 -13.6575 154.700 TC 35 -13.6674 154.717 2 -13.6575 154.700 TC 32 9 123
1974340S12152 1975 138 SP EA NOT_NAMED 1974-12-07 00:00:00 TS -13.9000 155.100 main 604 604 O________OO_O_ jtwc_sh SH041975 -13.9000 155.100 -1 -13.9000 155.100 TC 35 -13.9000 155.100 2 -13.9000 155.100 TC 35 9 122
1974340S12152 1975 138 SP EA NOT_NAMED 1974-12-07 03:00:00 TS -14.1113 155.455 main 652 652 P________PP_P_ SH041975 -14.1149 155.450 -1 -14.1149 155.450 TC 35 -14.1004 155.471 2 -14.1149 155.450 TC 35 8 120
1974340S12152 1975 138 SP EA NOT_NAMED 1974-12-07 06:00:00 TS -14.2949 155.811 main 665 647 O________OP_O_ jtwc_sh SH041975 -14.3000 155.800 -1 -14.3000 155.800 TC 35 -14.2797 155.843 2 -14.3000 155.800 TC 35 8 115
1974340S12152 1975 138 SP EA NOT_NAMED 1974-12-07 09:00:00 TS -14.4542 156.203 main 655 640 P________PP_P_ SH041975 -14.4575 156.200 -1 -14.4575 156.200 TC 35 -14.4441 156.218 2 -14.4575 156.193 TC 35 8 112
1974340S12152 1975 138 SP EA NOT_NAMED 1974-12-07 12:00:00 TS -14.6000 156.600 main 640 632 O________OO_O_ jtwc_sh SH041975 -14.6000 156.600 -1 -14.6000 156.600 TC 35 -14.6000 156.600 2 -14.6000 156.600 TC 35 8 112
1974340S12152 1975 138 SP EA NOT_NAMED 1974-12-07 15:00:00 TS -14.7503 156.948 main 642 627 P________PP_P_ SH041975 -14.7498 156.943 -1 -14.7498 156.943 TC 35 -14.7516 156.908 2 -14.7499 157.000 TC 32 7 114
1974340S12152 1975 138 SP EA NOT_NAMED 1974-12-07 18:00:00 TS -14.8993 157.309 main 632 625 O________OP_O_ jtwc_sh SH041975 -14.9000 157.300 -1 -14.9000 157.300 TC 35 -14.8974 157.236 2 -14.9000 157.400 TC 30 8 113
1974340S12152 1975 138 SP EA NOT_NAMED 1974-12-07 21:00:00 TS -15.0464 157.680 main 625 624 P________PP_P_ SH041975 -15.0495 157.675 -1 -15.0495 157.675 TC 35 -15.0447 157.646 2 -15.0419 157.725 TC 30 9 109
1974340S12152 1975 138 SP EA NOT_NAMED 1974-12-08 00:00:00 TS -15.2000 158.200 main 627 599 O________OO_O_ jtwc_sh SH041975 -15.2000 158.200 -1 -15.2000 158.200 TC 35 -15.2000 158.200 2 -15.2000 158.200 TC 30 13 104
1974340S12152 1975 138 SP EA NOT_NAMED 1974-12-08 03:00:00 TS -15.3707 158.983 main 597 565 P________PP_P_ SH041975 -15.3425 158.968 -1 -15.3425 158.968 TC 35 -15.3977 158.981 2 -15.4003 159.017 TC 30 17 102
1974340S12152 1975 138 SP EA NOT_NAMED 1974-12-08 06:00:00 TS -15.5492 159.927 main 565 557 O________OP_O_ jtwc_sh SH041975 -15.5000 159.900 -1 -15.5000 159.900 TC 35 -15.5970 159.906 2 -15.6000 160.000 TC 30 19 101
1974340S12152 1975 138 SP MM NOT_NAMED 1974-12-08 09:00:00 TS -15.7437 160.911 main 557 517 P________PP_P_ SH041975 -15.7150 160.892 -1 -15.7150 160.892 TC 35 -15.7725 160.903 2 -15.7724 160.957 TC 30 19 100
1974340S12152 1975 138 SP MM NOT_NAMED 1974-12-08 12:00:00 TS -15.9000 161.900 main 506 412 O________OO_O_ jtwc_sh SH041975 -15.9000 161.900 -1 -15.9000 161.900 TC 35 -15.9000 161.900 2 -15.9000 161.900 TC 30 18 97
1974340S12152 1975 138 SP MM NOT_NAMED 1974-12-08 15:00:00 TS -15.9792 162.811 main 412 328 P________PP_P_ SH041975 -15.9870 162.823 -1 -15.9870 162.823 TC 35 -15.9633 162.839 2 -15.9794 162.758 TC 27 17 93
1974340S12152 1975 138 SP MM NOT_NAMED 1974-12-08 18:00:00 TS -15.9933 163.681 main 317 234 O________OP_O_ jtwc_sh SH041975 -16.0000 163.700 -1 -16.0000 163.700 TC 35 -15.9730 163.724 2 -16.0000 163.600 TC 25 17 89
1974340S12152 1975 138 SP MM NOT_NAMED 1974-12-08 21:00:00 TS -15.9597 164.542 main 234 140 P________PP_P_ SH041975 -15.9632 164.555 -1 -15.9632 164.555 TC 35 -15.9463 164.571 2 -15.9659 164.485 TC 22 17 87
1974340S12152 1975 138 SP MM NOT_NAMED 1974-12-09 00:00:00 TS -15.9000 165.400 main 140 O________OO_O_ jtwc_sh SH041975 -15.9000 165.400 -1 -15.9000 165.400 TC 35 -15.9000 165.400 2 -15.9000 165.400 TC 20 17 86

デジタル台風データ・検索

IBTrACS Databaseについて

本データベースは、米国NOAAが公開する1842年以降の世界の熱帯低気圧のベストトラックデータアーカイブInternational Best Track Archive for Climate Stewardship (IBTrACS)を、ウェブで閲覧しやすい形式に変換したものです。

最終更新日:2021-10-25